sensor_id;sensor_type;location;lat;lon;timestamp;temperature;humidity
13446;DHT22;6795;51.232;3.764;2023-04-06T00:12:32;6.30;99.90
13446;DHT22;6795;51.232;3.764;2023-04-06T00:15:45;6.10;99.90
13446;DHT22;6795;51.232;3.764;2023-04-06T00:19:37;6.00;99.90
13446;DHT22;6795;51.232;3.764;2023-04-06T00:23:02;6.00;99.90
13446;DHT22;6795;51.232;3.764;2023-04-06T00:26:45;6.00;99.90
13446;DHT22;6795;51.232;3.764;2023-04-06T00:30:13;6.00;99.90
13446;DHT22;6795;51.232;3.764;2023-04-06T00:33:51;6.00;99.90
13446;DHT22;6795;51.232;3.764;2023-04-06T00:37:33;6.10;99.90
13446;DHT22;6795;51.232;3.764;2023-04-06T00:40:54;6.10;99.90
13446;DHT22;6795;51.232;3.764;2023-04-06T00:44:21;6.20;99.90
13446;DHT22;6795;51.232;3.764;2023-04-06T00:56:01;6.50;99.90
13446;DHT22;6795;51.232;3.764;2023-04-06T00:59:22;6.70;99.90
13446;DHT22;6795;51.232;3.764;2023-04-06T01:02:32;6.80;99.90
13446;DHT22;6795;51.232;3.764;2023-04-06T01:10:08;7.00;99.90
13446;DHT22;6795;51.232;3.764;2023-04-06T01:13:40;7.10;99.90
13446;DHT22;6795;51.232;3.764;2023-04-06T01:17:09;7.10;99.90
13446;DHT22;6795;51.232;3.764;2023-04-06T01:21:15;7.10;99.90
13446;DHT22;6795;51.232;3.764;2023-04-06T01:28:56;7.20;99.90
13446;DHT22;6795;51.232;3.764;2023-04-06T01:32:15;7.20;99.90
13446;DHT22;6795;51.232;3.764;2023-04-06T01:35:35;7.30;99.90
13446;DHT22;6795;51.232;3.764;2023-04-06T01:43:03;7.20;99.90
13446;DHT22;6795;51.232;3.764;2023-04-06T02:28:21;6.80;99.90
13446;DHT22;6795;51.232;3.764;2023-04-06T02:31:46;6.80;99.90
13446;DHT22;6795;51.232;3.764;2023-04-06T02:42:43;6.90;99.90
13446;DHT22;6795;51.232;3.764;2023-04-06T02:46:18;7.00;99.90
13446;DHT22;6795;51.232;3.764;2023-04-06T02:50:18;7.00;99.90
13446;DHT22;6795;51.232;3.764;2023-04-06T02:53:30;7.10;99.90
13446;DHT22;6795;51.232;3.764;2023-04-06T02:56:54;7.10;99.90
13446;DHT22;6795;51.232;3.764;2023-04-06T03:00:19;7.20;99.90
13446;DHT22;6795;51.232;3.764;2023-04-06T03:08:06;7.20;99.90
13446;DHT22;6795;51.232;3.764;2023-04-06T03:11:34;7.10;99.90
13446;DHT22;6795;51.232;3.764;2023-04-06T03:14:56;7.00;99.90
13446;DHT22;6795;51.232;3.764;2023-04-06T03:30:18;7.00;99.90
13446;DHT22;6795;51.232;3.764;2023-04-06T03:33:58;6.90;99.90
13446;DHT22;6795;51.232;3.764;2023-04-06T03:37:27;7.00;99.90
13446;DHT22;6795;51.232;3.764;2023-04-06T03:40:56;7.00;99.90
13446;DHT22;6795;51.232;3.764;2023-04-06T03:44:47;7.10;99.90
13446;DHT22;6795;51.232;3.764;2023-04-06T03:49:05;7.20;99.90
13446;DHT22;6795;51.232;3.764;2023-04-06T03:52:51;7.20;99.90
13446;DHT22;6795;51.232;3.764;2023-04-06T03:56:13;7.10;99.90
13446;DHT22;6795;51.232;3.764;2023-04-06T03:59:51;7.30;99.90
13446;DHT22;6795;51.232;3.764;2023-04-06T04:03:06;7.40;99.90
13446;DHT22;6795;51.232;3.764;2023-04-06T04:11:07;7.30;99.90
13446;DHT22;6795;51.232;3.764;2023-04-06T04:21:58;7.20;99.90
13446;DHT22;6795;51.232;3.764;2023-04-06T04:33:24;7.30;99.90
13446;DHT22;6795;51.232;3.764;2023-04-06T04:36:52;7.30;99.90
13446;DHT22;6795;51.232;3.764;2023-04-06T04:40:52;7.30;99.90
13446;DHT22;6795;51.232;3.764;2023-04-06T04:44:18;7.30;99.90
13446;DHT22;6795;51.232;3.764;2023-04-06T04:47:53;7.30;99.90
13446;DHT22;6795;51.232;3.764;2023-04-06T04:51:49;7.40;99.90
13446;DHT22;6795;51.232;3.764;2023-04-06T04:55:01;7.40;99.90
13446;DHT22;6795;51.232;3.764;2023-04-06T04:58:14;7.40;99.90
13446;DHT22;6795;51.232;3.764;2023-04-06T05:01:57;7.40;99.90
13446;DHT22;6795;51.232;3.764;2023-04-06T05:05:18;7.40;99.90
13446;DHT22;6795;51.232;3.764;2023-04-06T05:09:15;7.50;99.90
13446;DHT22;6795;51.232;3.764;2023-04-06T05:12:44;7.50;99.90
13446;DHT22;6795;51.232;3.764;2023-04-06T05:15:55;7.60;99.90
13446;DHT22;6795;51.232;3.764;2023-04-06T05:19:25;7.60;99.90
13446;DHT22;6795;51.232;3.764;2023-04-06T05:22:49;7.60;99.90
13446;DHT22;6795;51.232;3.764;2023-04-06T05:27:21;7.60;99.90
13446;DHT22;6795;51.232;3.764;2023-04-06T05:30:18;7.60;99.90
13446;DHT22;6795;51.232;3.764;2023-04-06T05:33:29;7.60;99.90
13446;DHT22;6795;51.232;3.764;2023-04-06T05:37:11;7.60;99.90
13446;DHT22;6795;51.232;3.764;2023-04-06T05:40:48;7.50;99.90
13446;DHT22;6795;51.232;3.764;2023-04-06T05:44:45;7.40;99.90
13446;DHT22;6795;51.232;3.764;2023-04-06T05:48:08;7.50;99.90
13446;DHT22;6795;51.232;3.764;2023-04-06T05:53:40;7.50;99.90
13446;DHT22;6795;51.232;3.764;2023-04-06T05:55:23;7.50;99.90
13446;DHT22;6795;51.232;3.764;2023-04-06T05:59:00;7.40;99.90
13446;DHT22;6795;51.232;3.764;2023-04-06T06:06:23;7.50;99.90
13446;DHT22;6795;51.232;3.764;2023-04-06T06:10:08;7.40;99.90
13446;DHT22;6795;51.232;3.764;2023-04-06T06:13:30;7.40;99.90
13446;DHT22;6795;51.232;3.764;2023-04-06T06:20:29;7.50;99.90
13446;DHT22;6795;51.232;3.764;2023-04-06T06:28:09;7.50;99.90
13446;DHT22;6795;51.232;3.764;2023-04-06T06:32:10;7.50;99.90
13446;DHT22;6795;51.232;3.764;2023-04-06T06:35:32;7.50;99.90
13446;DHT22;6795;51.232;3.764;2023-04-06T06:43:43;7.50;99.90
13446;DHT22;6795;51.232;3.764;2023-04-06T06:47:20;7.50;99.90
13446;DHT22;6795;51.232;3.764;2023-04-06T06:50:40;7.50;99.90
13446;DHT22;6795;51.232;3.764;2023-04-06T06:54:19;7.60;99.90
13446;DHT22;6795;51.232;3.764;2023-04-06T07:02:23;7.60;99.90
13446;DHT22;6795;51.232;3.764;2023-04-06T07:06:17;7.70;99.90
13446;DHT22;6795;51.232;3.764;2023-04-06T07:10:04;7.70;99.90
13446;DHT22;6795;51.232;3.764;2023-04-06T07:13:21;7.70;99.90
13446;DHT22;6795;51.232;3.764;2023-04-06T07:16:46;7.80;99.90
13446;DHT22;6795;51.232;3.764;2023-04-06T07:32:34;7.90;99.90
13446;DHT22;6795;51.232;3.764;2023-04-06T07:35:57;7.90;99.90
13446;DHT22;6795;51.232;3.764;2023-04-06T07:39:31;7.90;99.90
13446;DHT22;6795;51.232;3.764;2023-04-06T07:43:40;7.90;99.90
13446;DHT22;6795;51.232;3.764;2023-04-06T07:59:32;7.90;99.90
13446;DHT22;6795;51.232;3.764;2023-04-06T08:03:19;8.00;99.90
13446;DHT22;6795;51.232;3.764;2023-04-06T08:06:36;8.00;99.90
13446;DHT22;6795;51.232;3.764;2023-04-06T08:10:32;8.00;99.90
13446;DHT22;6795;51.232;3.764;2023-04-06T08:13:47;8.10;99.90
13446;DHT22;6795;51.232;3.764;2023-04-06T08:17:46;8.20;99.90
13446;DHT22;6795;51.232;3.764;2023-04-06T08:21:27;8.30;99.90
13446;DHT22;6795;51.232;3.764;2023-04-06T08:25:15;8.30;99.90
13446;DHT22;6795;51.232;3.764;2023-04-06T08:28:43;8.40;99.90
13446;DHT22;6795;51.232;3.764;2023-04-06T08:32:14;8.40;99.90
13446;DHT22;6795;51.232;3.764;2023-04-06T08:39:50;8.60;99.90
13446;DHT22;6795;51.232;3.764;2023-04-06T08:43:15;8.70;99.90
13446;DHT22;6795;51.232;3.764;2023-04-06T08:49:37;8.60;99.90
13446;DHT22;6795;51.232;3.764;2023-04-06T08:53:34;8.50;99.90
13446;DHT22;6795;51.232;3.764;2023-04-06T09:09:41;8.60;99.90
13446;DHT22;6795;51.232;3.764;2023-04-06T09:13:23;8.50;99.90
13446;DHT22;6795;51.232;3.764;2023-04-06T09:17:19;8.50;99.90
13446;DHT22;6795;51.232;3.764;2023-04-06T09:20:35;8.60;99.90
13446;DHT22;6795;51.232;3.764;2023-04-06T09:24:11;8.70;99.90
13446;DHT22;6795;51.232;3.764;2023-04-06T09:35:35;8.70;99.90
13446;DHT22;6795;51.232;3.764;2023-04-06T09:40:26;8.70;99.90
13446;DHT22;6795;51.232;3.764;2023-04-06T09:43:35;8.70;99.90
13446;DHT22;6795;51.232;3.764;2023-04-06T09:46:50;8.70;99.90
13446;DHT22;6795;51.232;3.764;2023-04-06T09:50:16;8.80;99.90
13446;DHT22;6795;51.232;3.764;2023-04-06T09:53:57;8.70;99.90
13446;DHT22;6795;51.232;3.764;2023-04-06T09:57:41;8.80;99.90
13446;DHT22;6795;51.232;3.764;2023-04-06T10:01:34;8.70;99.90
13446;DHT22;6795;51.232;3.764;2023-04-06T10:05:43;8.70;99.90
13446;DHT22;6795;51.232;3.764;2023-04-06T10:18:21;8.80;99.90
13446;DHT22;6795;51.232;3.764;2023-04-06T10:22:29;8.80;99.90
13446;DHT22;6795;51.232;3.764;2023-04-06T10:30:00;9.00;99.90
13446;DHT22;6795;51.232;3.764;2023-04-06T10:33:41;9.00;99.90
13446;DHT22;6795;51.232;3.764;2023-04-06T10:37:28;9.00;99.90
13446;DHT22;6795;51.232;3.764;2023-04-06T10:41:29;8.90;99.90
13446;DHT22;6795;51.232;3.764;2023-04-06T10:45:30;8.90;99.90
13446;DHT22;6795;51.232;3.764;2023-04-06T10:49:40;8.90;99.90
13446;DHT22;6795;51.232;3.764;2023-04-06T11:08:10;9.00;99.90
13446;DHT22;6795;51.232;3.764;2023-04-06T11:32:09;9.60;99.90
13446;DHT22;6795;51.232;3.764;2023-04-06T11:39:56;9.50;99.90
13446;DHT22;6795;51.232;3.764;2023-04-06T11:47:40;9.60;99.90
13446;DHT22;6795;51.232;3.764;2023-04-06T11:51:14;9.60;99.90
13446;DHT22;6795;51.232;3.764;2023-04-06T11:58:45;9.50;99.90
13446;DHT22;6795;51.232;3.764;2023-04-06T12:15:31;9.70;99.90
13446;DHT22;6795;51.232;3.764;2023-04-06T12:19:34;9.80;99.90
13446;DHT22;6795;51.232;3.764;2023-04-06T12:27:01;9.80;99.90
13446;DHT22;6795;51.232;3.764;2023-04-06T12:34:29;9.70;99.90
13446;DHT22;6795;51.232;3.764;2023-04-06T12:40:29;9.60;99.90
13446;DHT22;6795;51.232;3.764;2023-04-06T12:45:38;9.70;99.90
13446;DHT22;6795;51.232;3.764;2023-04-06T12:48:56;9.90;99.90
13446;DHT22;6795;51.232;3.764;2023-04-06T12:56:09;10.10;99.90
13446;DHT22;6795;51.232;3.764;2023-04-06T13:00:49;10.20;99.90
13446;DHT22;6795;51.232;3.764;2023-04-06T13:07:43;10.20;99.90
13446;DHT22;6795;51.232;3.764;2023-04-06T13:10:54;10.30;99.90
13446;DHT22;6795;51.232;3.764;2023-04-06T13:14:17;10.20;99.90
13446;DHT22;6795;51.232;3.764;2023-04-06T13:17:42;10.10;99.90
13446;DHT22;6795;51.232;3.764;2023-04-06T13:25:25;10.00;99.90
13446;DHT22;6795;51.232;3.764;2023-04-06T13:29:04;10.10;99.90
13446;DHT22;6795;51.232;3.764;2023-04-06T13:33:03;10.30;99.90
13446;DHT22;6795;51.232;3.764;2023-04-06T13:36:15;10.50;99.90
13446;DHT22;6795;51.232;3.764;2023-04-06T13:39:42;10.50;99.90
13446;DHT22;6795;51.232;3.764;2023-04-06T13:55:00;10.60;99.90
13446;DHT22;6795;51.232;3.764;2023-04-06T13:59:06;10.60;99.90
13446;DHT22;6795;51.232;3.764;2023-04-06T14:02:29;10.60;99.90
13446;DHT22;6795;51.232;3.764;2023-04-06T14:05:33;10.60;99.90
13446;DHT22;6795;51.232;3.764;2023-04-06T14:09:20;10.70;99.90
13446;DHT22;6795;51.232;3.764;2023-04-06T14:13:27;10.70;99.90
13446;DHT22;6795;51.232;3.764;2023-04-06T14:17:07;10.70;99.90
13446;DHT22;6795;51.232;3.764;2023-04-06T14:20:39;10.60;99.90
13446;DHT22;6795;51.232;3.764;2023-04-06T14:23:54;10.70;99.90
13446;DHT22;6795;51.232;3.764;2023-04-06T14:28:06;10.70;99.90
13446;DHT22;6795;51.232;3.764;2023-04-06T14:39:40;10.80;99.90
13446;DHT22;6795;51.232;3.764;2023-04-06T14:43:15;10.90;99.90
13446;DHT22;6795;51.232;3.764;2023-04-06T14:51:07;11.00;99.90
13446;DHT22;6795;51.232;3.764;2023-04-06T15:03:40;11.30;99.90
13446;DHT22;6795;51.232;3.764;2023-04-06T15:10:38;11.40;99.90
13446;DHT22;6795;51.232;3.764;2023-04-06T15:13:44;11.40;99.90
13446;DHT22;6795;51.232;3.764;2023-04-06T15:17:12;11.50;99.90
13446;DHT22;6795;51.232;3.764;2023-04-06T15:21:04;11.40;99.90
13446;DHT22;6795;51.232;3.764;2023-04-06T15:24:40;11.40;99.90
13446;DHT22;6795;51.232;3.764;2023-04-06T15:28:14;11.30;99.90
13446;DHT22;6795;51.232;3.764;2023-04-06T15:31:31;11.20;99.90
13446;DHT22;6795;51.232;3.764;2023-04-06T15:35:07;11.20;99.90
13446;DHT22;6795;51.232;3.764;2023-04-06T15:39:04;11.20;99.90
13446;DHT22;6795;51.232;3.764;2023-04-06T15:42:26;11.20;99.90
13446;DHT22;6795;51.232;3.764;2023-04-06T15:46:08;11.20;99.90
13446;DHT22;6795;51.232;3.764;2023-04-06T15:49:43;11.30;99.90
13446;DHT22;6795;51.232;3.764;2023-04-06T16:01:29;11.30;99.90
13446;DHT22;6795;51.232;3.764;2023-04-06T16:04:48;11.30;99.90
13446;DHT22;6795;51.232;3.764;2023-04-06T16:08:58;11.30;99.90
13446;DHT22;6795;51.232;3.764;2023-04-06T16:12:06;11.40;99.90
13446;DHT22;6795;51.232;3.764;2023-04-06T16:15:26;11.30;99.90
13446;DHT22;6795;51.232;3.764;2023-04-06T16:23:06;11.20;99.90
13446;DHT22;6795;51.232;3.764;2023-04-06T16:26:38;11.20;99.90
13446;DHT22;6795;51.232;3.764;2023-04-06T16:29:49;11.20;99.90
13446;DHT22;6795;51.232;3.764;2023-04-06T16:33:01;11.20;99.90
13446;DHT22;6795;51.232;3.764;2023-04-06T16:36:21;11.20;99.90
13446;DHT22;6795;51.232;3.764;2023-04-06T16:40:18;11.20;99.90
13446;DHT22;6795;51.232;3.764;2023-04-06T16:47:16;11.10;99.90
